Greenwood, South Dakota
Current Conditions -  °F | °C
As of 12:15 AM on Wednesday 22 Oct 2014 (Local Time) from KYKN Reporting Station
Clear Clear  
Wind Chill: 59°   Ceiling: Unl
Heat Index: 59°   Visibility: 9mi
Dew Point: 37°   Wind: 14mph
Humidity: 45%   Direction: 140°SE
Pressure: 29.99"   Gusts: 21mph
Location:  43.0908°N, 98.2525°W
Report Text: KYKN 220515Z AUTO 14012G18KT 9SM CLR 15/03 A2999 RMK AO1
Loading
Personal Weather Stations






























Interactive Weather Map
Tropical Storm Tracking
New forecast layout! Learn more

10-Day Weather Forecast

Advertisements
Track Severe Weather on mobile